createdAt,value
2023-05-14T00:00:45.479Z,94598.47
2023-05-14T00:03:12.337Z,94600.38
2023-05-14T00:05:38.991Z,94600.38
2023-05-14T00:08:06.282Z,94602.31
2023-05-14T00:10:33.076Z,94606.88
2023-05-14T00:12:59.609Z,94600.16
2023-05-14T00:15:26.161Z,94597.53
2023-05-14T00:17:52.769Z,94595.00
2023-05-14T00:20:19.489Z,94594.25
2023-05-14T00:22:46.068Z,94592.56
2023-05-14T00:25:12.694Z,94591.63
2023-05-14T00:27:39.488Z,94593.31
2023-05-14T00:30:09.352Z,94594.06
2023-05-14T00:32:36.046Z,94597.16
2023-05-14T00:35:04.439Z,94593.31
2023-05-14T00:37:31.092Z,94588.75
2023-05-14T00:39:58.181Z,94587.34
2023-05-14T00:42:24.867Z,94581.38
2023-05-14T00:44:51.732Z,94587.34
2023-05-14T00:47:18.876Z,94579.94
2023-05-14T00:49:45.637Z,94591.66
2023-05-14T00:52:14.415Z,94585.25
2023-05-14T00:54:41.070Z,94587.91
2023-05-14T00:57:07.927Z,94584.75
2023-05-14T00:59:34.625Z,94577.38
2023-05-14T01:02:01.600Z,94578.81
2023-05-14T01:04:28.339Z,94580.91
2023-05-14T01:07:19.020Z,94582.84
2023-05-14T01:10:23.409Z,94572.09
2023-05-14T01:12:53.618Z,94568.53
2023-05-14T01:15:25.633Z,94576.19
2023-05-14T01:17:56.482Z,94564.97
2023-05-14T01:20:23.495Z,94568.81
2023-05-14T01:22:50.481Z,94576.19
2023-05-14T01:25:17.085Z,94565.66
2023-05-14T01:27:49.908Z,94575.72
2023-05-14T01:33:16.478Z,94568.31
2023-05-14T01:35:44.490Z,94574.28
2023-05-14T01:38:13.632Z,94572.19
2023-05-14T01:40:40.853Z,94569.56
2023-05-14T01:43:08.678Z,94566.44
2023-05-14T01:45:36.670Z,94565.72
2023-05-14T01:48:04.913Z,94562.59
2023-05-14T01:50:31.619Z,94558.78
2023-05-14T01:52:58.218Z,94556.84
2023-05-14T01:55:25.785Z,94561.41
2023-05-14T01:57:53.195Z,94554.94
2023-05-14T02:00:20.997Z,94556.16
2023-05-14T02:02:47.780Z,94552.06
2023-05-14T02:05:14.409Z,94552.06
2023-05-14T02:07:41.049Z,94555.91
2023-05-14T02:10:08.278Z,94556.16
2023-05-14T02:12:34.823Z,94554.72
2023-05-14T02:15:01.429Z,94552.56
2023-05-14T02:17:28.066Z,94544.19
2023-05-14T02:19:54.720Z,94542.75
2023-05-14T02:22:21.299Z,94539.63
2023-05-14T02:24:49.746Z,94540.34
2023-05-14T02:27:16.376Z,94538.91
2023-05-14T02:29:43.007Z,94539.63
2023-05-14T02:32:10.133Z,94530.78
2023-05-14T02:34:36.775Z,94538.69
2023-05-14T02:37:03.372Z,94535.84
2023-05-14T02:39:29.952Z,94522.97
2023-05-14T02:41:56.506Z,94534.66
2023-05-14T02:44:23.019Z,94529.41
2023-05-14T02:46:49.696Z,94536.03
2023-05-14T02:49:16.257Z,94531.50
2023-05-14T02:51:42.814Z,94530.78
2023-05-14T02:54:09.571Z,94524.13
2023-05-14T02:56:36.164Z,94533.22
2023-05-14T02:59:02.845Z,94524.81
2023-05-14T03:01:29.803Z,94524.13
2023-05-14T03:03:57.012Z,94529.16
2023-05-14T03:06:23.593Z,94520.25
2023-05-14T03:08:50.631Z,94521.50
2023-05-14T03:11:17.317Z,94517.69
2023-05-14T03:13:43.919Z,94523.91
2023-05-14T03:16:11.434Z,94522.47
2023-05-14T03:18:38.161Z,94523.91
2023-05-14T03:21:04.917Z,94512.16
2023-05-14T03:23:35.142Z,94513.59
2023-05-14T03:26:02.208Z,94509.31
2023-05-14T03:28:28.782Z,94510.56
2023-05-14T03:30:55.439Z,94509.09
2023-05-14T03:33:22.768Z,94514.38
2023-05-14T03:35:49.425Z,94512.22
2023-05-14T03:38:16.374Z,94512.91
2023-05-14T03:40:44.764Z,94513.84
2023-05-14T03:43:11.737Z,94511.28
2023-05-14T03:45:38.793Z,94512.91
2023-05-14T03:48:06.065Z,94512.00
2023-05-14T03:50:32.816Z,94511.72
2023-05-14T03:52:59.375Z,94513.69
2023-05-14T03:55:25.902Z,94511.53
2023-05-14T03:57:52.488Z,94512.44
2023-05-14T04:00:19.362Z,94505.97
2023-05-14T04:02:46.036Z,94507.88
2023-05-14T04:05:12.622Z,94508.91
2023-05-14T04:07:39.188Z,94511.72
2023-05-14T04:10:06.405Z,94508.91
2023-05-14T04:12:32.933Z,94518.19
2023-05-14T04:14:59.564Z,94511.28
2023-05-14T04:17:26.223Z,94514.16
2023-05-14T04:19:52.822Z,94511.00
2023-05-14T04:22:19.344Z,94509.56
2023-05-14T04:24:46.021Z,94510.28
2023-05-14T04:27:19.750Z,94506.25
2023-05-14T04:29:46.164Z,94506.94
2023-05-14T04:32:12.812Z,94507.94
2023-05-14T04:34:40.024Z,94508.44
2023-05-14T04:37:06.852Z,94506.75
2023-05-14T04:39:33.527Z,94502.19
2023-05-14T04:42:00.047Z,94511.00
2023-05-14T04:44:26.740Z,94509.84
2023-05-14T04:46:53.275Z,94512.00
2023-05-14T04:49:20.915Z,94506.03
2023-05-14T04:51:48.241Z,94507.44
2023-05-14T04:54:14.832Z,94506.28
2023-05-14T04:56:41.448Z,94510.16
2023-05-14T04:59:08.062Z,94517.53
2023-05-14T05:01:34.789Z,94515.41
2023-05-14T05:04:01.429Z,94514.97
2023-05-14T05:06:28.100Z,94516.13
2023-05-14T05:08:55.491Z,94511.34
2023-05-14T05:11:22.012Z,94521.41
2023-05-14T05:13:48.612Z,94512.25
2023-05-14T05:16:15.728Z,94516.81
2023-05-14T05:18:42.469Z,94513.31
2023-05-14T05:21:09.094Z,94513.97
2023-05-14T05:23:35.671Z,94499.63
2023-05-14T05:26:02.197Z,94507.00
2023-05-14T05:28:28.783Z,94509.16
2023-05-14T05:30:55.431Z,94514.88
2023-05-14T05:33:22.226Z,94513.69
2023-05-14T05:35:50.154Z,94510.16
2023-05-14T05:38:18.316Z,94508.44
2023-05-14T05:40:45.150Z,94507.00
2023-05-14T05:43:13.862Z,94512.50
2023-05-14T05:45:40.954Z,94508.72
2023-05-14T05:48:07.657Z,94511.28
2023-05-14T05:50:34.193Z,94513.00
2023-05-14T05:53:00.957Z,94511.28
2023-05-14T05:55:28.718Z,94507.44
2023-05-14T05:57:55.594Z,94511.72
2023-05-14T06:00:22.580Z,94515.06
2023-05-14T06:02:49.510Z,94512.72
2023-05-14T06:05:16.501Z,94519.19
2023-05-14T06:07:43.071Z,94517.28
2023-05-14T06:10:09.776Z,94515.34
2023-05-14T06:12:36.638Z,94517.28
2023-05-14T06:15:03.363Z,94513.41
2023-05-14T06:17:29.987Z,94518.97
2023-05-14T06:19:56.587Z,94516.25
2023-05-14T06:22:23.174Z,94518.19
2023-05-14T06:24:49.754Z,94528.94
2023-05-14T06:27:16.333Z,94521.75
2023-05-14T06:29:42.920Z,94523.94
2023-05-14T06:32:10.270Z,94522.06
2023-05-14T06:34:36.949Z,94525.72
2023-05-14T06:37:04.251Z,94531.63
2023-05-14T06:39:30.926Z,94513.00
2023-05-14T06:41:57.557Z,94523.72
2023-05-14T06:44:24.236Z,94523.00
2023-05-14T06:46:50.775Z,94519.94
2023-05-14T06:49:17.452Z,94524.69
2023-05-14T06:51:44.227Z,94520.09
2023-05-14T06:54:10.772Z,94521.59
2023-05-14T06:56:37.304Z,94519.66
2023-05-14T06:59:03.890Z,94519.41
2023-05-14T07:01:30.588Z,94520.56
2023-05-14T07:03:57.462Z,94517.19
2023-05-14T07:06:24.068Z,94525.31
2023-05-14T07:08:50.648Z,94524.69
2023-05-14T07:11:17.261Z,94507.88
2023-05-14T07:13:43.886Z,94516.06
2023-05-14T07:16:10.569Z,94512.16
2023-05-14T07:18:37.340Z,94516.50
2023-05-14T07:21:06.462Z,94520.81
2023-05-14T07:23:36.225Z,94517.19
2023-05-14T07:26:03.513Z,94515.00
2023-05-14T07:28:30.127Z,94514.75
2023-05-14T07:30:56.796Z,94522.16
2023-05-14T07:33:24.071Z,94511.31
2023-05-14T07:35:50.962Z,94508.22
2023-05-14T07:38:17.740Z,94516.09
2023-05-14T07:40:44.365Z,94508.22
2023-05-14T07:43:11.182Z,94508.22
2023-05-14T07:45:38.686Z,94505.09
2023-05-14T07:48:05.871Z,94503.09
2023-05-14T07:50:32.734Z,94507.34
2023-05-14T07:52:59.287Z,94504.63
2023-05-14T07:55:25.966Z,94511.59
2023-05-14T07:57:52.544Z,94503.44
2023-05-14T08:00:19.322Z,94500.81
2023-05-14T08:02:46.260Z,94502.94
2023-05-14T08:05:13.036Z,94502.00
2023-05-14T08:07:39.624Z,94497.69
2023-05-14T08:10:07.861Z,94494.56
2023-05-14T08:12:34.504Z,94491.69
2023-05-14T08:15:02.196Z,94486.06
2023-05-14T08:17:28.901Z,94488.22
2023-05-14T08:19:55.499Z,94493.13
2023-05-14T08:22:22.062Z,94485.16
2023-05-14T08:24:48.904Z,94481.25
2023-05-14T08:27:16.616Z,94485.00
2023-05-14T08:29:43.228Z,94487.47
2023-05-14T08:32:22.025Z,94477.09
2023-05-14T08:34:49.775Z,94479.69
2023-05-14T08:37:16.366Z,94485.97
2023-05-14T08:39:42.899Z,94483.94
2023-05-14T08:42:13.064Z,94478.06
2023-05-14T08:44:54.863Z,94477.03
2023-05-14T08:47:22.697Z,94481.72
2023-05-14T08:49:57.740Z,94479.59
2023-05-14T08:52:24.510Z,94479.50
2023-05-14T08:54:53.781Z,94476.94
2023-05-14T08:57:21.505Z,94480.84
2023-05-14T08:59:48.573Z,94475.28
2023-05-14T09:02:17.417Z,94482.44
2023-05-14T09:04:44.670Z,94472.28
2023-05-14T09:07:11.625Z,94478.50
2023-05-14T09:09:38.555Z,94470.59
2023-05-14T09:12:06.417Z,94468.16
2023-05-14T09:14:33.663Z,94464.59
2023-05-14T09:17:00.361Z,94468.03
2023-05-14T09:19:27.197Z,94463.75
2023-05-14T09:21:58.288Z,94467.09
2023-05-14T09:24:27.400Z,94462.63
2023-05-14T09:26:56.301Z,94463.75
2023-05-14T09:29:27.142Z,94460.81
2023-05-14T09:31:54.677Z,94458.88
2023-05-14T09:34:29.099Z,94455.00
2023-05-14T09:37:06.718Z,94462.44
2023-05-14T09:39:34.766Z,94466.13
2023-05-14T09:42:01.355Z,94459.00
2023-05-14T09:44:28.324Z,94468.03
2023-05-14T09:46:55.835Z,94464.91
2023-05-14T09:49:22.699Z,94463.75
2023-05-14T09:51:50.060Z,94465.09
2023-05-14T09:54:16.895Z,94462.66
2023-05-14T09:56:44.492Z,94467.63
2023-05-14T09:59:11.455Z,94461.13
2023-05-14T10:01:38.461Z,94465.50
2023-05-14T10:04:07.861Z,94472.13
2023-05-14T10:06:37.868Z,94468.63
2023-05-14T10:09:09.013Z,94464.28
2023-05-14T10:11:38.500Z,94469.56
2023-05-14T10:14:08.898Z,94467.84
2023-05-14T10:16:40.694Z,94466.53
2023-05-14T10:19:12.050Z,94467.25
2023-05-14T10:21:41.061Z,94465.78
2023-05-14T10:24:08.671Z,94471.59
2023-05-14T10:26:39.237Z,94474.53
2023-05-14T10:29:06.824Z,94474.94
2023-05-14T10:31:50.004Z,94480.72
2023-05-14T10:34:34.803Z,94476.34
2023-05-14T10:37:02.862Z,94478.50
2023-05-14T10:39:49.753Z,94479.59
2023-05-14T10:42:19.256Z,94470.78
2023-05-14T10:44:58.573Z,94476.47
2023-05-14T10:47:29.276Z,94478.09
2023-05-14T10:49:58.086Z,94470.78
2023-05-14T10:52:25.616Z,94479.22
2023-05-14T10:54:53.254Z,94470.78
2023-05-14T10:57:21.330Z,94469.34
2023-05-14T10:59:56.277Z,94459.44
2023-05-14T11:02:34.875Z,94461.16
2023-05-14T11:05:05.857Z,94469.13
2023-05-14T11:07:46.866Z,94457.47
2023-05-14T11:10:14.713Z,94460.03
2023-05-14T11:12:43.888Z,94460.94
2023-05-14T11:15:15.050Z,94462.75
2023-05-14T11:17:43.748Z,94459.63
2023-05-14T11:20:11.428Z,94458.56
2023-05-14T11:22:39.730Z,94456.47
2023-05-14T11:25:07.214Z,94455.94
2023-05-14T11:27:36.054Z,94446.00
2023-05-14T11:30:03.991Z,94447.66
2023-05-14T11:32:33.771Z,94450.06
2023-05-14T11:35:00.589Z,94440.53
2023-05-14T11:37:27.193Z,94448.34
2023-05-14T11:39:55.965Z,94442.38
2023-05-14T11:42:23.690Z,94441.53
2023-05-14T11:44:56.908Z,94433.69
2023-05-14T11:47:23.478Z,94435.56
2023-05-14T11:49:50.274Z,94438.91
2023-05-14T11:52:19.548Z,94431.19
2023-05-14T11:54:46.612Z,94422.72
2023-05-14T11:57:21.083Z,94427.19
2023-05-14T11:59:49.697Z,94427.84
2023-05-14T12:02:19.066Z,94430.16
2023-05-14T12:04:52.179Z,94427.72
2023-05-14T12:07:19.430Z,94431.38
2023-05-14T12:09:49.752Z,94430.47
2023-05-14T12:12:19.534Z,94431.19
2023-05-14T12:14:46.797Z,94421.72
2023-05-14T12:17:18.623Z,94416.84
2023-05-14T12:19:47.607Z,94422.53
2023-05-14T12:22:17.628Z,94414.41
2023-05-14T12:24:53.073Z,94413.28
2023-05-14T12:27:22.920Z,94413.34
2023-05-14T12:29:49.502Z,94413.59
2023-05-14T12:32:16.032Z,94416.63
2023-05-14T12:34:42.761Z,94408.91
2023-05-14T12:37:09.298Z,94424.97
2023-05-14T12:39:35.940Z,94411.22
2023-05-14T12:42:02.526Z,94407.47
2023-05-14T12:44:29.189Z,94402.91
2023-05-14T12:46:56.109Z,94402.34
2023-05-14T12:49:22.779Z,94396.81
2023-05-14T12:51:51.153Z,94398.38
2023-05-14T12:54:19.305Z,94397.84
2023-05-14T12:56:45.958Z,94404.66
2023-05-14T12:59:12.528Z,94400.09
2023-05-14T13:01:39.255Z,94392.50
2023-05-14T13:04:06.294Z,94389.84
2023-05-14T13:06:32.909Z,94385.50
2023-05-14T13:09:01.848Z,94380.03
2023-05-14T13:11:30.381Z,94379.00
2023-05-14T13:13:57.093Z,94380.81
2023-05-14T13:16:23.798Z,94372.09
2023-05-14T13:18:50.452Z,94378.19
2023-05-14T13:21:20.563Z,94371.75
2023-05-14T13:23:47.993Z,94370.63
2023-05-14T13:26:14.953Z,94373.00
2023-05-14T13:28:41.847Z,94366.50
2023-05-14T13:31:11.141Z,94359.78
2023-05-14T13:33:41.965Z,94360.84
2023-05-14T13:36:09.294Z,94356.22
2023-05-14T13:38:36.080Z,94351.47
2023-05-14T13:41:02.997Z,94348.13
2023-05-14T13:43:31.137Z,94350.56
2023-05-14T13:45:58.097Z,94339.41
2023-05-14T13:48:25.397Z,94335.56
2023-05-14T13:50:52.153Z,94335.06
2023-05-14T13:53:23.101Z,94331.22
2023-05-14T13:55:50.382Z,94326.31
2023-05-14T13:58:17.032Z,94321.13
2023-05-14T14:00:43.588Z,94329.06
2023-05-14T14:03:10.242Z,94319.44
2023-05-14T14:05:36.874Z,94318.38
2023-05-14T14:08:13.187Z,94318.75
2023-05-14T14:10:49.122Z,94310.81
2023-05-14T14:13:15.718Z,94306.59
2023-05-14T14:15:43.618Z,94312.59
2023-05-14T14:18:10.336Z,94300.25
2023-05-14T14:20:37.009Z,94296.69
2023-05-14T14:23:03.728Z,94292.47
2023-05-14T14:25:30.359Z,94287.13
2023-05-14T14:27:56.948Z,94289.00
2023-05-14T14:30:23.545Z,94276.63
2023-05-14T14:32:50.898Z,94279.09
2023-05-14T14:35:18.848Z,94278.63
2023-05-14T14:37:49.330Z,94268.13
2023-05-14T14:40:16.869Z,94271.47
2023-05-14T14:42:44.118Z,94274.38
2023-05-14T14:45:11.446Z,94273.41
2023-05-14T14:47:38.122Z,94277.28
2023-05-14T14:50:05.926Z,94264.94
2023-05-14T14:52:32.498Z,94265.88
2023-05-14T14:54:59.134Z,94272.66
2023-05-14T14:57:26.744Z,94259.22
2023-05-14T14:59:53.319Z,94261.25
2023-05-14T15:02:23.157Z,94262.88
2023-05-14T15:04:49.755Z,94252.03
2023-05-14T15:07:17.378Z,94244.78
2023-05-14T15:09:44.184Z,94249.41
2023-05-14T15:12:10.921Z,94249.66
2023-05-14T15:14:37.600Z,94241.91
2023-05-14T15:17:04.466Z,94237.38
2023-05-14T15:19:32.365Z,94247.03
2023-05-14T15:21:59.106Z,94242.31
2023-05-14T15:24:26.244Z,94242.00
2023-05-14T15:26:53.767Z,94238.41
2023-05-14T15:29:20.544Z,94240.31
2023-05-14T15:31:47.283Z,94245.16
2023-05-14T15:34:13.979Z,94238.41
2023-05-14T15:36:40.750Z,94238.91
2023-05-14T15:39:10.272Z,94236.63
2023-05-14T15:41:37.084Z,94238.41
2023-05-14T15:44:03.800Z,94236.38
2023-05-14T15:46:31.063Z,94235.56
2023-05-14T15:48:58.412Z,94237.69
2023-05-14T15:51:25.047Z,94231.06
2023-05-14T15:53:53.749Z,94225.03
2023-05-14T15:56:21.637Z,94234.34
2023-05-14T15:58:48.719Z,94237.63
2023-05-14T16:01:15.416Z,94240.75
2023-05-14T16:03:42.129Z,94239.69
2023-05-14T16:06:08.757Z,94245.94
2023-05-14T16:08:35.353Z,94234.59
2023-05-14T16:11:01.970Z,94239.69
2023-05-14T16:13:28.640Z,94235.06
2023-05-14T16:15:55.527Z,94231.47
2023-05-14T16:18:22.360Z,94234.91
2023-05-14T16:20:48.922Z,94228.03
2023-05-14T16:23:15.491Z,94229.22
2023-05-14T16:25:42.164Z,94226.69
2023-05-14T16:28:08.870Z,94217.56
2023-05-14T16:30:35.639Z,94227.25
2023-05-14T16:33:02.283Z,94219.91
2023-05-14T16:35:29.016Z,94222.63
2023-05-14T16:37:56.064Z,94218.88
2023-05-14T16:40:23.717Z,94217.94
2023-05-14T16:42:51.282Z,94220.84
2023-05-14T16:45:18.019Z,94211.28
2023-05-14T16:47:44.752Z,94213.06
2023-05-14T16:50:11.700Z,94206.66
2023-05-14T16:52:38.214Z,94214.00
2023-05-14T16:55:05.307Z,94214.50
2023-05-14T16:57:32.103Z,94212.69
2023-05-14T16:59:58.743Z,94214.19
2023-05-14T17:02:25.652Z,94209.03
2023-05-14T17:04:54.167Z,94211.13
2023-05-14T17:07:20.824Z,94237.63
2023-05-14T17:09:47.436Z,94237.34
2023-05-14T17:12:14.075Z,94245.06
2023-05-14T17:14:40.916Z,94238.13
2023-05-14T17:17:07.509Z,94245.63
2023-05-14T17:19:34.284Z,94249.97
2023-05-14T17:22:00.910Z,94254.03
2023-05-14T17:24:27.501Z,94254.28
2023-05-14T17:26:54.067Z,94263.28
2023-05-14T17:29:20.664Z,94272.28
2023-05-14T17:31:48.318Z,94276.75
2023-05-14T17:34:14.974Z,94288.03
2023-05-14T17:36:41.566Z,94290.00
2023-05-14T17:39:08.074Z,94293.34
2023-05-14T17:41:34.946Z,94304.47
2023-05-14T17:44:01.482Z,94298.81
2023-05-14T17:46:28.169Z,94299.88
2023-05-14T17:48:54.938Z,94302.19
2023-05-14T17:51:21.462Z,94302.88
2023-05-14T17:53:48.063Z,94309.94
2023-05-14T17:56:15.525Z,94304.63
2023-05-14T17:58:42.110Z,94315.91
2023-05-14T18:01:08.943Z,94309.19
2023-05-14T18:03:35.791Z,94314.50
2023-05-14T18:06:02.429Z,94315.00
2023-05-14T18:08:29.021Z,94311.09
2023-05-14T18:10:55.574Z,94309.72
2023-05-14T18:13:22.215Z,94315.34
2023-05-14T18:15:48.851Z,94320.78
2023-05-14T18:18:18.606Z,94325.91
2023-05-14T18:20:45.222Z,94322.00
2023-05-14T18:23:11.752Z,94326.03
2023-05-14T18:25:39.479Z,94328.69
2023-05-14T18:28:06.541Z,94329.56
2023-05-14T18:30:33.343Z,94320.16
2023-05-14T18:33:00.064Z,94319.09
2023-05-14T18:35:27.791Z,94312.19
2023-05-14T18:37:54.949Z,94318.03
2023-05-14T18:40:21.468Z,94322.06
2023-05-14T18:42:48.122Z,94314.94
2023-05-14T18:45:14.862Z,94318.31
2023-05-14T18:47:41.617Z,94312.25
2023-05-14T18:50:08.705Z,94313.81
2023-05-14T18:52:35.398Z,94312.94
2023-05-14T18:55:02.005Z,94312.75
2023-05-14T18:57:32.902Z,94320.63
2023-05-14T19:00:03.094Z,94327.66
2023-05-14T19:02:29.954Z,94310.53
2023-05-14T19:04:56.727Z,94317.06
2023-05-14T19:07:23.414Z,94319.50
2023-05-14T19:09:50.020Z,94313.84
2023-05-14T19:12:16.627Z,94316.50
2023-05-14T19:14:43.335Z,94315.59
2023-05-14T19:17:10.096Z,94316.09
2023-05-14T19:19:37.376Z,94323.13
2023-05-14T19:22:04.103Z,94320.28
2023-05-14T19:24:30.780Z,94318.88
2023-05-14T19:26:57.456Z,94320.59
2023-05-14T19:29:24.908Z,94319.69
2023-05-14T19:31:51.509Z,94333.47
2023-05-14T19:34:18.052Z,94330.63
2023-05-14T19:36:44.722Z,94331.13
2023-05-14T19:39:11.467Z,94324.25
2023-05-14T19:41:38.035Z,94333.88
2023-05-14T19:44:04.640Z,94330.34
2023-05-14T19:46:31.355Z,94335.22
2023-05-14T19:48:58.006Z,94335.09
2023-05-14T19:51:25.378Z,94333.25
2023-05-14T19:53:51.959Z,94340.28
2023-05-14T19:56:18.624Z,94342.72
2023-05-14T19:58:45.220Z,94344.47
2023-05-14T20:01:12.100Z,94335.66
2023-05-14T20:03:38.973Z,94343.56
2023-05-14T20:06:07.036Z,94341.22
2023-05-14T20:08:33.687Z,94340.34
2023-05-14T20:11:00.415Z,94342.06
2023-05-14T20:13:27.050Z,94341.38
2023-05-14T20:15:55.163Z,94342.38
2023-05-14T20:18:22.066Z,94345.56
2023-05-14T20:20:49.090Z,94345.16
2023-05-14T20:23:15.809Z,94335.09
2023-05-14T20:25:43.110Z,94345.44
2023-05-14T20:28:10.280Z,94347.38
2023-05-14T20:30:37.014Z,94347.91
2023-05-14T20:33:04.028Z,94344.34
2023-05-14T20:35:31.319Z,94347.53
2023-05-14T20:38:01.399Z,94346.59
2023-05-14T20:40:28.044Z,94338.47
2023-05-14T20:42:54.680Z,94339.22
2023-05-14T20:45:21.360Z,94342.88
2023-05-14T20:47:48.097Z,94338.81
2023-05-14T20:50:14.800Z,94345.09
2023-05-14T20:52:41.358Z,94351.41
2023-05-14T20:55:08.685Z,94338.72
2023-05-14T20:57:35.449Z,94341.88
2023-05-14T21:00:04.645Z,94343.63
2023-05-14T21:02:31.306Z,94337.94
2023-05-14T21:04:58.037Z,94337.94
2023-05-14T21:07:25.176Z,94333.66
2023-05-14T21:09:52.722Z,94338.22
2023-05-14T21:12:19.473Z,94351.25
2023-05-14T21:14:46.111Z,94349.84
2023-05-14T21:17:12.773Z,94346.97
2023-05-14T21:19:39.727Z,94348.00
2023-05-14T21:22:06.883Z,94343.25
2023-05-14T21:24:33.443Z,94353.19
2023-05-14T21:27:00.070Z,94350.53
2023-05-14T21:29:26.609Z,94339.16
2023-05-14T21:31:53.251Z,94337.97
2023-05-14T21:34:19.804Z,94339.72
2023-05-14T21:36:46.818Z,94338.59
2023-05-14T21:39:13.902Z,94346.50
2023-05-14T21:41:40.475Z,94349.84
2023-05-14T21:44:07.013Z,94345.78
2023-05-14T21:46:33.868Z,94350.66
2023-05-14T21:49:00.588Z,94350.66
2023-05-14T21:51:27.309Z,94348.53
2023-05-14T21:53:53.853Z,94348.53
2023-05-14T21:56:21.155Z,94346.91
2023-05-14T21:58:47.762Z,94344.59
2023-05-14T22:01:14.406Z,94341.03
2023-05-14T22:03:41.548Z,94341.84
2023-05-14T22:06:08.152Z,94343.97
2023-05-14T22:08:34.727Z,94331.47
2023-05-14T22:11:01.337Z,94334.66
2023-05-14T22:13:28.520Z,94336.56
2023-05-14T22:16:09.224Z,94335.22
2023-05-14T22:18:38.696Z,94336.47
2023-05-14T22:21:05.854Z,94333.59
2023-05-14T22:23:32.386Z,94341.22
2023-05-14T22:25:58.966Z,94338.88
2023-05-14T22:28:25.692Z,94338.81
2023-05-14T22:30:52.476Z,94343.34
2023-05-14T22:33:19.516Z,94326.13
2023-05-14T22:35:46.268Z,94332.78
2023-05-14T22:38:13.835Z,94331.16
2023-05-14T22:40:40.574Z,94328.53
2023-05-14T22:43:07.129Z,94325.41
2023-05-14T22:45:33.765Z,94330.47
2023-05-14T22:48:00.566Z,94322.56
2023-05-14T22:50:27.174Z,94316.59
2023-05-14T22:52:53.711Z,94317.81
2023-05-14T22:55:20.436Z,94316.44
2023-05-14T22:57:47.015Z,94311.47
2023-05-14T23:00:13.970Z,94309.06
2023-05-14T23:02:40.911Z,94316.25
2023-05-14T23:05:08.644Z,94312.91
2023-05-14T23:07:35.618Z,94308.13
2023-05-14T23:10:02.250Z,94310.28
2023-05-14T23:12:28.780Z,94302.16
2023-05-14T23:14:55.521Z,94304.41
2023-05-14T23:17:22.213Z,94300.56
2023-05-14T23:19:48.848Z,94287.88
2023-05-14T23:22:15.521Z,94296.28
2023-05-14T23:24:42.090Z,94296.28
2023-05-14T23:27:08.720Z,94295.59
2023-05-14T23:29:35.608Z,94292.03
2023-05-14T23:32:02.288Z,94292.03
2023-05-14T23:34:28.890Z,94290.41
2023-05-14T23:36:55.749Z,94293.34
2023-05-14T23:39:22.660Z,94286.84
2023-05-14T23:41:49.227Z,94283.84
2023-05-14T23:44:15.767Z,94276.63
2023-05-14T23:46:42.364Z,94272.56
2023-05-14T23:49:08.979Z,94279.06
2023-05-14T23:51:36.823Z,94272.13
2023-05-14T23:54:03.472Z,94274.78
2023-05-14T23:56:30.076Z,94276.00
2023-05-14T23:58:56.812Z,94281.06
